Margarita, Argentina
Current Conditions -  °F | °C
As of 3:00 AM on Sunday 23 Nov 2014 (Local Time) from SARE Reporting Station
Clear Clear  
Wind Chill: 61°   Ceiling: Unl
Heat Index: 61°   Visibility: 6mi
Dew Point: 57°   Wind: 2mph
Humidity: 88%   Direction: 140°SE
Pressure: 29.91"   Gusts: NA
Location:  29.68°S, 60.25°W
Report Text: SARE 230600Z 14002KT CAVOK 16/14 Q1013
Loading
Personal Weather Stations






























Interactive Weather Map New forecast layout! Learn more

10-Day Weather Forecast

Advertisements
Track Severe Weather on mobile